地図

経路データ

SID SEASON NUMBER BASIN SUBBASIN NAME ISO_TIME NATURE LAT LON WMO_WIND WMO_PRES WMO_AGENCY TRACK_TYPE DIST2LAND LANDFALL IFLAG USA_AGENCY USA_ATCF_ID USA_LAT USA_LON USA_RECORD USA_STATUS USA_WIND USA_PRES USA_SSHS USA_R34_NE USA_R34_SE USA_R34_SW USA_R34_NW USA_R50_NE USA_R50_SE USA_R50_SW USA_R50_NW USA_R64_NE USA_R64_SE USA_R64_SW USA_R64_NW USA_POCI USA_ROCI USA_RMW USA_EYE TOKYO_LAT TOKYO_LON TOKYO_GRADE TOKYO_WIND TOKYO_PRES TOKYO_R50_DIR TOKYO_R50_LONG TOKYO_R50_SHORT TOKYO_R30_DIR TOKYO_R30_LONG TOKYO_R30_SHORT TOKYO_LAND CMA_LAT CMA_LON CMA_CAT CMA_WIND CMA_PRES HKO_LAT HKO_LON HKO_CAT HKO_WIND HKO_PRES NEWDELHI_LAT NEWDELHI_LON NEWDELHI_GRADE NEWDELHI_WIND NEWDELHI_PRES NEWDELHI_CI NEWDELHI_DP NEWDELHI_POCI REUNION_LAT REUNION_LON REUNION_TYPE REUNION_WIND REUNION_PRES REUNION_TNUM REUNION_CI REUNION_RMW REUNION_R34_NE REUNION_R34_SE REUNION_R34_SW REUNION_R34_NW REUNION_R50_NE REUNION_R50_SE REUNION_R50_SW REUNION_R50_NW REUNION_R64_NE REUNION_R64_SE REUNION_R64_SW REUNION_R64_NW BOM_LAT BOM_LON BOM_TYPE BOM_WIND BOM_PRES BOM_TNUM BOM_CI BOM_RMW BOM_R34_NE BOM_R34_SE BOM_R34_SW BOM_R34_NW BOM_R50_NE BOM_R50_SE BOM_R50_SW BOM_R50_NW BOM_R64_NE BOM_R64_SE BOM_R64_SW BOM_R64_NW BOM_ROCI BOM_POCI BOM_EYE BOM_POS_METHOD BOM_PRES_METHOD NADI_LAT NADI_LON NADI_CAT NADI_WIND NADI_PRES WELLINGTON_LAT WELLINGTON_LON WELLINGTON_WIND WELLINGTON_PRES DS824_LAT DS824_LON DS824_STAGE DS824_WIND DS824_PRES TD9636_LAT TD9636_LON TD9636_STAGE TD9636_WIND TD9636_PRES TD9635_LAT TD9635_LON TD9635_WIND TD9635_PRES TD9635_ROCI NEUMANN_LAT NEUMANN_LON NEUMANN_CLASS NEUMANN_WIND NEUMANN_PRES MLC_LAT MLC_LON MLC_CLASS MLC_WIND MLC_PRES USA_GUST BOM_GUST BOM_GUST_PER REUNION_GUST REUNION_GUST_PER USA_SEAHGT USA_SEARAD_NE USA_SEARAD_SE USA_SEARAD_SW USA_SEARAD_NW STORM_SPEED STORM_DIR
1891278N17148 1891 45 WP MM NOT_NAMED 1891-10-04 16:00:00 NR 17.4000 148.300 main 2124 2024 __________O___ -1 17.4000 148.300 7 40 291
1891278N17148 1891 45 WP MM NOT_NAMED 1891-10-04 18:00:00 NR 17.8809 146.987 main 2024 1891 __________P___ -1 17.8809 146.987 7 39 291
1891278N17148 1891 45 WP MM NOT_NAMED 1891-10-04 21:00:00 NR 18.5757 145.075 main 1891 1751 __________P___ -1 18.5757 145.075 7 37 291
1891278N17148 1891 45 WP MM NOT_NAMED 1891-10-05 00:00:00 NR 19.2246 143.338 main 1751 1634 __________P___ -1 19.2246 143.338 7 33 292
1891278N17148 1891 45 WP MM NOT_NAMED 1891-10-05 03:00:00 NR 19.8166 141.895 main 1634 1602 __________P___ -1 19.8166 141.895 7 28 294
1891278N17148 1891 45 WP MM NOT_NAMED 1891-10-05 04:00:00 NR 20.0000 141.500 main 1599 1547 __________O___ -1 20.0000 141.500 7 22 298
1891278N17148 1891 45 WP MM NOT_NAMED 1891-10-05 06:00:00 NR 20.3467 140.853 main 1547 1472 __________P___ -1 20.3467 140.853 7 18 304
1891278N17148 1891 45 WP MM NOT_NAMED 1891-10-05 09:00:00 NR 20.8357 140.176 main 1472 1397 __________P___ -1 20.8357 140.176 7 14 313
1891278N17148 1891 45 WP MM NOT_NAMED 1891-10-05 12:00:00 NR 21.3171 139.738 main 1397 1333 __________P___ -1 21.3171 139.738 7 12 324
1891278N17148 1891 45 WP MM NOT_NAMED 1891-10-05 15:00:00 NR 21.8216 139.408 main 1333 1309 __________P___ -1 21.8216 139.408 7 12 329
1891278N17148 1891 45 WP MM NOT_NAMED 1891-10-05 16:00:00 NR 22.0000 139.300 main 1309 1249 __________O___ -1 22.0000 139.300 7 14 322
1891278N17148 1891 45 WP MM NOT_NAMED 1891-10-05 18:00:00 NR 22.3803 138.939 main 1249 1164 __________P___ -1 22.3803 138.939 7 15 321
1891278N17148 1891 45 WP MM NOT_NAMED 1891-10-05 21:00:00 NR 22.9822 138.428 main 1164 1086 __________P___ -1 22.9822 138.428 7 15 325
1891278N17148 1891 45 WP MM NOT_NAMED 1891-10-06 00:00:00 NR 23.6161 137.992 main 1086 1005 __________P___ -1 23.6161 137.992 7 15 332
1891278N17148 1891 45 WP MM NOT_NAMED 1891-10-06 03:00:00 NR 24.2756 137.673 main 1005 981 __________P___ -1 24.2756 137.673 7 14 338
1891278N17148 1891 45 WP MM NOT_NAMED 1891-10-06 04:00:00 NR 24.5000 137.600 main 981 930 __________O___ -1 24.5000 137.600 7 14 347
1891278N17148 1891 45 WP MM NOT_NAMED 1891-10-06 06:00:00 NR 24.9515 137.502 main 930 879 __________P___ -1 24.9515 137.502 7 14 355
1891278N17148 1891 45 WP MM NOT_NAMED 1891-10-06 09:00:00 NR 25.6483 137.477 main 879 800 __________P___ -1 25.6483 137.477 7 14 2
1891278N17148 1891 45 WP MM NOT_NAMED 1891-10-06 12:00:00 NR 26.3575 137.566 main 800 726 __________P___ -1 26.3575 137.566 7 14 9
1891278N17148 1891 45 WP MM NOT_NAMED 1891-10-06 15:00:00 NR 27.0661 137.733 main 726 707 __________P___ -1 27.0661 137.733 7 15 13
1891278N17148 1891 45 WP MM NOT_NAMED 1891-10-06 16:00:00 NR 27.3000 137.800 main 707 656 __________O___ -1 27.3000 137.800 7 14 15
1891278N17148 1891 45 WP MM NOT_NAMED 1891-10-06 18:00:00 NR 27.7622 137.944 main 656 602 __________P___ -1 27.7622 137.944 7 14 17
1891278N17148 1891 45 WP MM NOT_NAMED 1891-10-06 21:00:00 NR 28.4437 138.182 main 602 539 __________P___ -1 28.4437 138.182 7 14 18
1891278N17148 1891 45 WP MM NOT_NAMED 1891-10-07 00:00:00 NR 29.1146 138.439 main 539 486 __________P___ -1 29.1146 138.439 7 14 19
1891278N17148 1891 45 WP MM NOT_NAMED 1891-10-07 03:00:00 NR 29.7792 138.708 main 486 473 __________P___ -1 29.7792 138.708 7 14 20
1891278N17148 1891 45 WP MM NOT_NAMED 1891-10-07 04:00:00 NR 30.0000 138.800 main 473 __________O___ -1 30.0000 138.800 7 14 19

デジタル台風データ・検索

IBTrACS Databaseについて

本データベースは、米国NOAAが公開する1842年以降の世界の熱帯低気圧のベストトラックデータアーカイブInternational Best Track Archive for Climate Stewardship (IBTrACS)を、ウェブで閲覧しやすい形式に変換したものです。

最終更新日:2021-12-03